Terminal Aerodrome Forecast
Issued by NWS Twin Cities, MN

Home | Current Version | Previous Version | Text Only | Print | Product List | Glossary On
Versions: 1 2 3 4 5 6 7 8 9 10 11 12 13 14 15 16 17 18 19 20 21 22 23 24 25 26 27 28 29 30
000
FTUS43 KMPX 250311 AAB
TAFMSP
TAF AMD
KMSP 250311Z 2503/2606 28007KT P6SM VCSH SCT040 BKN080
      TEMPO 2504/2507 4SM TSRA SCT020 OVC035CB
     FM250700 30006KT 5SM -SHRA BR OVC030
     FM251000 35006KT 5SM -RA BR OVC012
     FM252000 36007KT 6SM -SHRA BR OVC020=

USA.gov is the U.S. government's official web portal to all federal, state and local government web resources and services.